南京市, Jiangsu

2015年3月07日 01時29分 (GMT +0800)
Lukou | Change Station
CLOSE
Current Station
機場
Location: Nanjing,
海拔: 118 ft
附近的氣象站

海拔 118 ft 31.93 °N, 118.90 °E | Updated 29 minutes ago

Overcast
陰天
41 °F
感覺像 41 °F
2
風 變化 風 來自 變化

今日
高 -- | 低 -- °F
--% 降水機率
昨天
高 -- | 低 -- °F
Precip. -- 英寸
6:25 AM 6:06 PM
滿月, 99% visible
氣壓 30.24 英寸
能見度 2.2 英里
多雲 少數 2600 ft
陰天 4000 ft
露點 37 °F
濕度 87%
降雨量 0.00 英寸
積雪深度 不適用。
紫外線 0 / 12
花粉 不適用。
空氣質素 不適用。
Flu Activity 不適用。
METAR ZSNJ 061700Z VRB01MPS 3500 BR FEW026 OVC040 05/03 Q1024 NOSIG

More Conditions Fewer Conditions

氣壓 30.24 英寸
能見度 2.2 英里
多雲 少數 2600 ft
陰天 4000 ft
露點 37 °F
濕度 87%
降雨量 0.00 英寸
積雪深度 不適用。
紫外線 0 / 12
花粉 不適用。
空氣質素 不適用。
Flu Activity 不適用。
METAR ZSNJ 061700Z VRB01MPS 3500 BR FEW026 OVC040 05/03 Q1024 NOSIG

More Conditions Fewer Conditions

10-Day Weather Forecast

Almanac

天文

Mar. 07, 2015 昇起 降落
實際時間
民用曙暮光
航海曙暮光
天文學微明
月亮
可見光的長度
白晝時間
Tomorrow will be .
, % of the Moon is Illuminated

今天之最

國家高溫 國家低溫

Community

WunderPhotos

Upload Photos

1,803,345 照片已上傳!

WunderBlogs® & News

Nearby

空氣質素

  空氣質素 空氣質素指數 污染物
Not available.

積雪量

Station 深度 海拔

地震活動

城市 距離 時間和日期
顯示的最小幅度是2.5。

沿海水溫

地點 溫度

附近的氣象站